sensor_id;sensor_type;location;lat;lon;timestamp;temperature;humidity
15452;DHT22;7827;53.594;9.938;2024-02-14T00:00:25;7.20;1.00
15452;DHT22;7827;53.594;9.938;2024-02-14T00:02:54;7.20;1.00
15452;DHT22;7827;53.594;9.938;2024-02-14T00:05:23;7.20;1.00
15452;DHT22;7827;53.594;9.938;2024-02-14T00:07:51;7.10;1.00
15452;DHT22;7827;53.594;9.938;2024-02-14T00:10:19;7.00;1.00
15452;DHT22;7827;53.594;9.938;2024-02-14T00:12:47;6.90;1.00
15452;DHT22;7827;53.594;9.938;2024-02-14T00:15:16;7.00;1.00
15452;DHT22;7827;53.594;9.938;2024-02-14T00:17:44;7.00;1.00
15452;DHT22;7827;53.594;9.938;2024-02-14T00:20:14;6.90;1.00
15452;DHT22;7827;53.594;9.938;2024-02-14T00:22:51;6.80;1.00
15452;DHT22;7827;53.594;9.938;2024-02-14T00:25:19;6.80;1.00
15452;DHT22;7827;53.594;9.938;2024-02-14T00:27:48;6.90;1.00
15452;DHT22;7827;53.594;9.938;2024-02-14T00:30:17;6.90;1.00
15452;DHT22;7827;53.594;9.938;2024-02-14T00:33:05;6.90;1.00
15452;DHT22;7827;53.594;9.938;2024-02-14T00:35:36;6.90;1.00
15452;DHT22;7827;53.594;9.938;2024-02-14T00:38:04;6.90;1.00
15452;DHT22;7827;53.594;9.938;2024-02-14T00:40:32;6.80;1.00
15452;DHT22;7827;53.594;9.938;2024-02-14T00:43:00;6.80;1.00
15452;DHT22;7827;53.594;9.938;2024-02-14T00:45:29;6.80;1.00
15452;DHT22;7827;53.594;9.938;2024-02-14T00:47:57;6.90;1.00
15452;DHT22;7827;53.594;9.938;2024-02-14T00:50:25;6.90;1.00
15452;DHT22;7827;53.594;9.938;2024-02-14T00:52:55;6.90;1.00
15452;DHT22;7827;53.594;9.938;2024-02-14T00:55:23;6.90;1.00
15452;DHT22;7827;53.594;9.938;2024-02-14T00:57:51;7.10;1.00
15452;DHT22;7827;53.594;9.938;2024-02-14T01:00:20;7.10;1.00
15452;DHT22;7827;53.594;9.938;2024-02-14T01:02:48;7.10;1.00
15452;DHT22;7827;53.594;9.938;2024-02-14T01:05:16;7.10;1.00
15452;DHT22;7827;53.594;9.938;2024-02-14T01:07:45;7.10;28.40
15452;DHT22;7827;53.594;9.938;2024-02-14T01:10:15;7.10;1.00
15452;DHT22;7827;53.594;9.938;2024-02-14T01:12:43;7.20;1.00
15452;DHT22;7827;53.594;9.938;2024-02-14T01:15:11;7.20;99.90
15452;DHT22;7827;53.594;9.938;2024-02-14T01:17:39;7.30;1.30
15452;DHT22;7827;53.594;9.938;2024-02-14T01:20:08;7.40;1.00
15452;DHT22;7827;53.594;9.938;2024-02-14T01:22:36;7.30;89.20
15452;DHT22;7827;53.594;9.938;2024-02-14T01:25:11;7.30;16.60
15452;DHT22;7827;53.594;9.938;2024-02-14T01:27:41;7.40;24.10
15452;DHT22;7827;53.594;9.938;2024-02-14T01:30:10;7.30;99.90
15452;DHT22;7827;53.594;9.938;2024-02-14T01:32:38;7.40;99.50
15452;DHT22;7827;53.594;9.938;2024-02-14T01:35:07;7.30;99.90
15452;DHT22;7827;53.594;9.938;2024-02-14T01:37:36;7.30;99.90
15452;DHT22;7827;53.594;9.938;2024-02-14T01:40:05;7.30;99.90
15452;DHT22;7827;53.594;9.938;2024-02-14T01:42:49;7.30;99.90
15452;DHT22;7827;53.594;9.938;2024-02-14T01:45:19;7.20;1.00
15452;DHT22;7827;53.594;9.938;2024-02-14T01:47:58;7.20;1.00
15452;DHT22;7827;53.594;9.938;2024-02-14T01:50:26;7.10;1.00
15452;DHT22;7827;53.594;9.938;2024-02-14T01:52:58;7.10;1.00
15452;DHT22;7827;53.594;9.938;2024-02-14T01:55:27;7.10;1.00
15452;DHT22;7827;53.594;9.938;2024-02-14T01:57:57;7.10;1.00
15452;DHT22;7827;53.594;9.938;2024-02-14T02:00:25;7.10;1.00
15452;DHT22;7827;53.594;9.938;2024-02-14T02:02:55;7.00;1.00
15452;DHT22;7827;53.594;9.938;2024-02-14T02:05:24;6.90;1.00
15452;DHT22;7827;53.594;9.938;2024-02-14T02:07:53;7.00;1.00
15452;DHT22;7827;53.594;9.938;2024-02-14T02:10:21;6.90;1.00
15452;DHT22;7827;53.594;9.938;2024-02-14T02:13:13;6.90;1.00
15452;DHT22;7827;53.594;9.938;2024-02-14T02:16:03;6.80;9.80
15452;DHT22;7827;53.594;9.938;2024-02-14T02:18:52;6.90;54.40
15452;DHT22;7827;53.594;9.938;2024-02-14T02:21:42;6.80;9.40
15452;DHT22;7827;53.594;9.938;2024-02-14T02:24:12;6.80;31.60
15452;DHT22;7827;53.594;9.938;2024-02-14T02:26:40;6.70;55.30
15452;DHT22;7827;53.594;9.938;2024-02-14T02:29:28;6.80;68.40
15452;DHT22;7827;53.594;9.938;2024-02-14T02:31:58;6.80;70.90
15452;DHT22;7827;53.594;9.938;2024-02-14T02:34:26;6.80;70.90
15452;DHT22;7827;53.594;9.938;2024-02-14T02:36:54;6.70;88.90
15452;DHT22;7827;53.594;9.938;2024-02-14T02:39:43;6.70;99.90
15452;DHT22;7827;53.594;9.938;2024-02-14T02:42:31;6.70;99.90
15452;DHT22;7827;53.594;9.938;2024-02-14T02:45:19;6.70;99.90
15452;DHT22;7827;53.594;9.938;2024-02-14T02:48:07;6.70;99.90
15452;DHT22;7827;53.594;9.938;2024-02-14T02:50:54;6.70;99.90
15452;DHT22;7827;53.594;9.938;2024-02-14T02:53:41;6.70;99.90
15452;DHT22;7827;53.594;9.938;2024-02-14T02:56:30;6.70;99.90
15452;DHT22;7827;53.594;9.938;2024-02-14T02:59:00;6.60;90.90
15452;DHT22;7827;53.594;9.938;2024-02-14T03:01:35;6.40;99.90
15452;DHT22;7827;53.594;9.938;2024-02-14T03:04:23;6.50;99.90
15452;DHT22;7827;53.594;9.938;2024-02-14T03:07:31;6.50;99.90
15452;DHT22;7827;53.594;9.938;2024-02-14T03:10:19;6.40;99.90
15452;DHT22;7827;53.594;9.938;2024-02-14T03:13:10;6.30;99.90
15452;DHT22;7827;53.594;9.938;2024-02-14T03:15:58;6.30;99.90
15452;DHT22;7827;53.594;9.938;2024-02-14T03:18:27;6.40;99.90
15452;DHT22;7827;53.594;9.938;2024-02-14T03:20:55;6.40;99.90
15452;DHT22;7827;53.594;9.938;2024-02-14T03:23:23;6.40;99.90
15452;DHT22;7827;53.594;9.938;2024-02-14T03:25:51;6.50;99.90
15452;DHT22;7827;53.594;9.938;2024-02-14T03:28:21;6.50;99.90
15452;DHT22;7827;53.594;9.938;2024-02-14T03:30:49;6.40;99.90
15452;DHT22;7827;53.594;9.938;2024-02-14T03:33:17;6.50;99.90
15452;DHT22;7827;53.594;9.938;2024-02-14T03:35:46;6.60;99.90
15452;DHT22;7827;53.594;9.938;2024-02-14T03:38:24;6.50;99.90
15452;DHT22;7827;53.594;9.938;2024-02-14T03:40:53;6.40;99.90
15452;DHT22;7827;53.594;9.938;2024-02-14T03:43:22;6.40;99.90
15452;DHT22;7827;53.594;9.938;2024-02-14T03:45:51;6.50;99.90
15452;DHT22;7827;53.594;9.938;2024-02-14T03:48:19;6.40;99.90
15452;DHT22;7827;53.594;9.938;2024-02-14T03:50:48;6.40;99.90
15452;DHT22;7827;53.594;9.938;2024-02-14T03:53:16;6.40;99.90
15452;DHT22;7827;53.594;9.938;2024-02-14T03:55:44;6.30;99.90
15452;DHT22;7827;53.594;9.938;2024-02-14T03:58:12;6.40;99.90
15452;DHT22;7827;53.594;9.938;2024-02-14T04:00:43;6.40;99.90
15452;DHT22;7827;53.594;9.938;2024-02-14T04:03:12;6.30;99.90
15452;DHT22;7827;53.594;9.938;2024-02-14T04:05:41;6.30;99.90
15452;DHT22;7827;53.594;9.938;2024-02-14T04:08:09;6.30;99.90
15452;DHT22;7827;53.594;9.938;2024-02-14T04:10:37;6.40;99.90
15452;DHT22;7827;53.594;9.938;2024-02-14T04:13:06;6.40;99.90
15452;DHT22;7827;53.594;9.938;2024-02-14T04:15:34;6.40;99.90
15452;DHT22;7827;53.594;9.938;2024-02-14T04:18:10;6.40;99.90
15452;DHT22;7827;53.594;9.938;2024-02-14T04:20:38;6.40;99.90
15452;DHT22;7827;53.594;9.938;2024-02-14T04:23:07;6.40;99.90
15452;DHT22;7827;53.594;9.938;2024-02-14T04:25:36;6.30;99.90
15452;DHT22;7827;53.594;9.938;2024-02-14T04:28:04;6.30;99.90
15452;DHT22;7827;53.594;9.938;2024-02-14T04:30:32;6.20;99.90
15452;DHT22;7827;53.594;9.938;2024-02-14T04:33:11;6.20;99.90
15452;DHT22;7827;53.594;9.938;2024-02-14T04:35:41;6.30;99.90
15452;DHT22;7827;53.594;9.938;2024-02-14T04:38:09;6.20;99.90
15452;DHT22;7827;53.594;9.938;2024-02-14T04:40:37;6.20;99.90
15452;DHT22;7827;53.594;9.938;2024-02-14T04:43:06;6.20;99.90
15452;DHT22;7827;53.594;9.938;2024-02-14T04:45:34;6.20;99.90
15452;DHT22;7827;53.594;9.938;2024-02-14T04:48:05;6.20;99.90
15452;DHT22;7827;53.594;9.938;2024-02-14T04:50:36;6.20;99.90
15452;DHT22;7827;53.594;9.938;2024-02-14T04:53:05;6.20;99.90
15452;DHT22;7827;53.594;9.938;2024-02-14T04:55:33;6.30;99.90
15452;DHT22;7827;53.594;9.938;2024-02-14T04:58:01;6.30;99.90
15452;DHT22;7827;53.594;9.938;2024-02-14T05:00:31;6.30;99.90
15452;DHT22;7827;53.594;9.938;2024-02-14T05:02:59;6.20;99.90
15452;DHT22;7827;53.594;9.938;2024-02-14T05:05:28;6.20;99.90
15452;DHT22;7827;53.594;9.938;2024-02-14T05:08:00;6.20;99.90
15452;DHT22;7827;53.594;9.938;2024-02-14T05:10:29;6.20;99.90
15452;DHT22;7827;53.594;9.938;2024-02-14T05:12:57;6.30;99.90
15452;DHT22;7827;53.594;9.938;2024-02-14T05:15:25;6.20;99.90
15452;DHT22;7827;53.594;9.938;2024-02-14T05:17:54;6.20;99.90
15452;DHT22;7827;53.594;9.938;2024-02-14T05:20:23;6.30;99.90
15452;DHT22;7827;53.594;9.938;2024-02-14T05:22:51;6.20;99.90
15452;DHT22;7827;53.594;9.938;2024-02-14T05:25:21;6.30;99.90
15452;DHT22;7827;53.594;9.938;2024-02-14T05:27:54;6.30;99.90
15452;DHT22;7827;53.594;9.938;2024-02-14T05:30:23;6.30;99.90
15452;DHT22;7827;53.594;9.938;2024-02-14T05:33:01;6.30;99.90
15452;DHT22;7827;53.594;9.938;2024-02-14T05:35:30;6.20;99.90
15452;DHT22;7827;53.594;9.938;2024-02-14T05:37:58;6.30;99.90
15452;DHT22;7827;53.594;9.938;2024-02-14T05:40:27;6.40;99.90
15452;DHT22;7827;53.594;9.938;2024-02-14T05:42:55;6.40;99.90
15452;DHT22;7827;53.594;9.938;2024-02-14T05:45:24;6.50;99.90
15452;DHT22;7827;53.594;9.938;2024-02-14T05:47:52;6.50;99.90
15452;DHT22;7827;53.594;9.938;2024-02-14T05:50:20;6.50;99.90
15452;DHT22;7827;53.594;9.938;2024-02-14T05:52:48;6.40;99.90
15452;DHT22;7827;53.594;9.938;2024-02-14T05:55:17;6.50;99.90
15452;DHT22;7827;53.594;9.938;2024-02-14T05:57:51;6.50;99.90
15452;DHT22;7827;53.594;9.938;2024-02-14T06:00:20;6.50;99.90
15452;DHT22;7827;53.594;9.938;2024-02-14T06:02:54;6.60;99.90
15452;DHT22;7827;53.594;9.938;2024-02-14T06:05:22;6.60;99.90
15452;DHT22;7827;53.594;9.938;2024-02-14T06:07:50;6.40;99.90
15452;DHT22;7827;53.594;9.938;2024-02-14T06:10:19;6.50;99.90
15452;DHT22;7827;53.594;9.938;2024-02-14T06:12:47;6.50;99.90
15452;DHT22;7827;53.594;9.938;2024-02-14T06:15:17;6.50;99.90
15452;DHT22;7827;53.594;9.938;2024-02-14T06:17:45;6.50;99.90
15452;DHT22;7827;53.594;9.938;2024-02-14T06:20:15;6.60;99.90
15452;DHT22;7827;53.594;9.938;2024-02-14T06:22:43;6.70;99.90
15452;DHT22;7827;53.594;9.938;2024-02-14T06:25:23;6.70;99.90
15452;DHT22;7827;53.594;9.938;2024-02-14T06:27:58;6.60;99.90
15452;DHT22;7827;53.594;9.938;2024-02-14T06:30:28;6.70;99.90
15452;DHT22;7827;53.594;9.938;2024-02-14T06:32:59;6.70;99.90
15452;DHT22;7827;53.594;9.938;2024-02-14T06:35:30;6.70;99.90
15452;DHT22;7827;53.594;9.938;2024-02-14T06:37:58;6.80;99.90
15452;DHT22;7827;53.594;9.938;2024-02-14T06:40:31;6.70;99.90
15452;DHT22;7827;53.594;9.938;2024-02-14T06:42:59;6.80;99.90
15452;DHT22;7827;53.594;9.938;2024-02-14T06:45:30;6.80;99.90
15452;DHT22;7827;53.594;9.938;2024-02-14T06:48:07;6.80;99.90
15452;DHT22;7827;53.594;9.938;2024-02-14T06:50:36;6.70;99.90
15452;DHT22;7827;53.594;9.938;2024-02-14T06:53:06;6.80;99.90
15452;DHT22;7827;53.594;9.938;2024-02-14T06:55:34;6.80;99.90
15452;DHT22;7827;53.594;9.938;2024-02-14T06:58:03;6.90;99.90
15452;DHT22;7827;53.594;9.938;2024-02-14T07:00:33;6.80;99.90
15452;DHT22;7827;53.594;9.938;2024-02-14T07:03:01;6.80;99.90
15452;DHT22;7827;53.594;9.938;2024-02-14T07:05:30;6.90;99.90
15452;DHT22;7827;53.594;9.938;2024-02-14T07:07:59;6.90;99.90
15452;DHT22;7827;53.594;9.938;2024-02-14T07:10:27;6.90;99.90
15452;DHT22;7827;53.594;9.938;2024-02-14T07:12:56;6.90;99.90
15452;DHT22;7827;53.594;9.938;2024-02-14T07:15:24;7.00;99.90
15452;DHT22;7827;53.594;9.938;2024-02-14T07:17:57;6.90;99.90
15452;DHT22;7827;53.594;9.938;2024-02-14T07:20:26;7.00;99.90
15452;DHT22;7827;53.594;9.938;2024-02-14T07:22:54;7.00;99.90
15452;DHT22;7827;53.594;9.938;2024-02-14T07:25:23;7.00;99.90
15452;DHT22;7827;53.594;9.938;2024-02-14T07:27:51;6.90;99.90
15452;DHT22;7827;53.594;9.938;2024-02-14T07:30:19;6.90;99.90
15452;DHT22;7827;53.594;9.938;2024-02-14T07:32:48;6.90;99.90
15452;DHT22;7827;53.594;9.938;2024-02-14T07:35:19;6.90;99.90
15452;DHT22;7827;53.594;9.938;2024-02-14T07:37:47;7.10;99.90
15452;DHT22;7827;53.594;9.938;2024-02-14T07:40:16;7.10;99.90
15452;DHT22;7827;53.594;9.938;2024-02-14T07:43:04;7.20;99.90
15452;DHT22;7827;53.594;9.938;2024-02-14T07:45:33;7.10;99.90
15452;DHT22;7827;53.594;9.938;2024-02-14T07:48:01;7.20;99.90
15452;DHT22;7827;53.594;9.938;2024-02-14T07:50:31;7.00;99.90
15452;DHT22;7827;53.594;9.938;2024-02-14T07:53:01;7.10;99.90
15452;DHT22;7827;53.594;9.938;2024-02-14T07:55:29;7.10;99.90
15452;DHT22;7827;53.594;9.938;2024-02-14T07:57:57;7.20;99.90
15452;DHT22;7827;53.594;9.938;2024-02-14T08:00:26;7.10;99.90
15452;DHT22;7827;53.594;9.938;2024-02-14T08:02:54;7.20;99.90
15452;DHT22;7827;53.594;9.938;2024-02-14T08:05:22;7.20;99.90
15452;DHT22;7827;53.594;9.938;2024-02-14T08:07:52;7.20;99.90
15452;DHT22;7827;53.594;9.938;2024-02-14T08:10:20;7.20;99.90
15452;DHT22;7827;53.594;9.938;2024-02-14T08:12:48;7.20;99.90
15452;DHT22;7827;53.594;9.938;2024-02-14T08:15:16;7.40;99.90
15452;DHT22;7827;53.594;9.938;2024-02-14T08:17:45;7.40;99.90
15452;DHT22;7827;53.594;9.938;2024-02-14T08:20:13;7.40;99.90
15452;DHT22;7827;53.594;9.938;2024-02-14T08:22:54;7.40;99.90
15452;DHT22;7827;53.594;9.938;2024-02-14T08:25:22;7.50;99.90
15452;DHT22;7827;53.594;9.938;2024-02-14T08:27:50;7.40;99.90
15452;DHT22;7827;53.594;9.938;2024-02-14T08:30:19;7.40;99.90
15452;DHT22;7827;53.594;9.938;2024-02-14T08:32:48;7.40;99.90
15452;DHT22;7827;53.594;9.938;2024-02-14T08:35:16;7.40;99.90
15452;DHT22;7827;53.594;9.938;2024-02-14T08:37:44;7.60;99.90
15452;DHT22;7827;53.594;9.938;2024-02-14T08:40:14;7.60;99.90
15452;DHT22;7827;53.594;9.938;2024-02-14T08:42:43;7.60;99.90
15452;DHT22;7827;53.594;9.938;2024-02-14T08:45:11;7.60;99.90
15452;DHT22;7827;53.594;9.938;2024-02-14T08:47:40;7.50;99.90
15452;DHT22;7827;53.594;9.938;2024-02-14T08:50:11;7.50;99.90
15452;DHT22;7827;53.594;9.938;2024-02-14T08:52:39;7.50;99.90
15452;DHT22;7827;53.594;9.938;2024-02-14T08:55:07;7.60;99.90
15452;DHT22;7827;53.594;9.938;2024-02-14T08:57:43;7.70;99.90
15452;DHT22;7827;53.594;9.938;2024-02-14T09:00:12;7.70;99.90
15452;DHT22;7827;53.594;9.938;2024-02-14T09:02:41;7.80;99.90
15452;DHT22;7827;53.594;9.938;2024-02-14T09:05:09;8.00;99.90
15452;DHT22;7827;53.594;9.938;2024-02-14T09:07:37;8.00;99.90
15452;DHT22;7827;53.594;9.938;2024-02-14T09:10:06;8.10;99.90
15452;DHT22;7827;53.594;9.938;2024-02-14T09:12:34;8.10;99.90
15452;DHT22;7827;53.594;9.938;2024-02-14T09:15:05;8.10;99.90
15452;DHT22;7827;53.594;9.938;2024-02-14T09:17:33;8.20;99.90
15452;DHT22;7827;53.594;9.938;2024-02-14T09:20:01;8.30;99.90
15452;DHT22;7827;53.594;9.938;2024-02-14T09:22:30;8.30;99.90
15452;DHT22;7827;53.594;9.938;2024-02-14T09:24:58;8.30;99.90
15452;DHT22;7827;53.594;9.938;2024-02-14T09:27:26;8.30;99.90
15452;DHT22;7827;53.594;9.938;2024-02-14T09:29:54;8.40;99.90
15452;DHT22;7827;53.594;9.938;2024-02-14T09:32:24;8.40;99.90
15452;DHT22;7827;53.594;9.938;2024-02-14T09:34:52;8.50;99.90
15452;DHT22;7827;53.594;9.938;2024-02-14T09:37:20;8.50;99.90
15452;DHT22;7827;53.594;9.938;2024-02-14T09:39:49;8.60;99.90
15452;DHT22;7827;53.594;9.938;2024-02-14T09:42:21;8.50;99.90
15452;DHT22;7827;53.594;9.938;2024-02-14T09:44:58;8.50;99.90
15452;DHT22;7827;53.594;9.938;2024-02-14T09:47:30;8.60;99.90
15452;DHT22;7827;53.594;9.938;2024-02-14T09:50:01;8.80;99.90
15452;DHT22;7827;53.594;9.938;2024-02-14T09:52:32;8.80;99.90
15452;DHT22;7827;53.594;9.938;2024-02-14T09:55:01;9.00;99.90
15452;DHT22;7827;53.594;9.938;2024-02-14T09:57:32;9.10;99.90
15452;DHT22;7827;53.594;9.938;2024-02-14T10:00:02;9.10;99.90
15452;DHT22;7827;53.594;9.938;2024-02-14T10:10:06;9.30;99.90
15452;DHT22;7827;53.594;9.938;2024-02-14T10:12:34;9.40;99.90
15452;DHT22;7827;53.594;9.938;2024-02-14T10:15:02;9.50;99.90
15452;DHT22;7827;53.594;9.938;2024-02-14T10:17:33;9.70;99.90
15452;DHT22;7827;53.594;9.938;2024-02-14T10:20:02;9.70;99.90
15452;DHT22;7827;53.594;9.938;2024-02-14T10:22:33;9.80;99.90
15452;DHT22;7827;53.594;9.938;2024-02-14T10:25:04;9.90;99.90
15452;DHT22;7827;53.594;9.938;2024-02-14T10:27:36;10.10;99.90
15452;DHT22;7827;53.594;9.938;2024-02-14T10:30:06;10.30;99.90
15452;DHT22;7827;53.594;9.938;2024-02-14T10:32:37;10.30;99.90
15452;DHT22;7827;53.594;9.938;2024-02-14T10:35:06;10.40;99.90
15452;DHT22;7827;53.594;9.938;2024-02-14T10:37:36;10.50;99.90
15452;DHT22;7827;53.594;9.938;2024-02-14T10:40:07;10.60;99.90
15452;DHT22;7827;53.594;9.938;2024-02-14T10:42:35;10.60;99.90
15452;DHT22;7827;53.594;9.938;2024-02-14T10:45:05;10.50;99.90
15452;DHT22;7827;53.594;9.938;2024-02-14T10:47:46;10.60;99.90
15452;DHT22;7827;53.594;9.938;2024-02-14T10:50:16;10.80;99.90
15452;DHT22;7827;53.594;9.938;2024-02-14T10:52:46;10.80;99.90
15452;DHT22;7827;53.594;9.938;2024-02-14T10:55:17;10.90;99.90
15452;DHT22;7827;53.594;9.938;2024-02-14T10:57:46;11.00;99.90
15452;DHT22;7827;53.594;9.938;2024-02-14T11:00:17;10.90;99.90
15452;DHT22;7827;53.594;9.938;2024-02-14T11:02:45;10.90;99.90
15452;DHT22;7827;53.594;9.938;2024-02-14T11:05:16;10.90;99.90
15452;DHT22;7827;53.594;9.938;2024-02-14T11:07:45;11.00;99.90
15452;DHT22;7827;53.594;9.938;2024-02-14T11:10:15;11.00;99.90
15452;DHT22;7827;53.594;9.938;2024-02-14T11:12:46;11.20;99.90
15452;DHT22;7827;53.594;9.938;2024-02-14T11:15:19;11.20;99.90
15452;DHT22;7827;53.594;9.938;2024-02-14T11:17:49;11.00;99.90
15452;DHT22;7827;53.594;9.938;2024-02-14T11:20:20;11.10;99.90
15452;DHT22;7827;53.594;9.938;2024-02-14T11:22:56;11.20;99.90
15452;DHT22;7827;53.594;9.938;2024-02-14T11:25:31;11.20;99.90
15452;DHT22;7827;53.594;9.938;2024-02-14T11:28:12;11.30;99.90
15452;DHT22;7827;53.594;9.938;2024-02-14T11:30:42;11.10;99.90
15452;DHT22;7827;53.594;9.938;2024-02-14T11:33:14;11.10;99.90
15452;DHT22;7827;53.594;9.938;2024-02-14T11:35:43;11.10;99.90
15452;DHT22;7827;53.594;9.938;2024-02-14T11:38:11;11.20;99.90
15452;DHT22;7827;53.594;9.938;2024-02-14T11:40:40;11.10;99.90
15452;DHT22;7827;53.594;9.938;2024-02-14T11:43:14;11.10;99.90
15452;DHT22;7827;53.594;9.938;2024-02-14T11:45:44;11.20;99.90
15452;DHT22;7827;53.594;9.938;2024-02-14T11:48:13;11.20;99.90
15452;DHT22;7827;53.594;9.938;2024-02-14T11:50:44;11.20;99.90
15452;DHT22;7827;53.594;9.938;2024-02-14T11:53:13;11.20;99.90
15452;DHT22;7827;53.594;9.938;2024-02-14T11:55:43;11.20;99.90
15452;DHT22;7827;53.594;9.938;2024-02-14T11:58:15;11.20;99.90
15452;DHT22;7827;53.594;9.938;2024-02-14T12:00:45;11.10;99.90
15452;DHT22;7827;53.594;9.938;2024-02-14T12:03:17;11.10;99.90
15452;DHT22;7827;53.594;9.938;2024-02-14T12:05:47;11.00;99.90
15452;DHT22;7827;53.594;9.938;2024-02-14T12:08:16;11.00;99.90
15452;DHT22;7827;53.594;9.938;2024-02-14T12:10:46;10.90;99.90
15452;DHT22;7827;53.594;9.938;2024-02-14T12:13:19;10.90;99.90
15452;DHT22;7827;53.594;9.938;2024-02-14T12:15:49;10.80;99.90
15452;DHT22;7827;53.594;9.938;2024-02-14T12:18:20;10.80;99.90
15452;DHT22;7827;53.594;9.938;2024-02-14T12:20:49;10.90;99.90
15452;DHT22;7827;53.594;9.938;2024-02-14T12:23:22;10.90;99.90
15452;DHT22;7827;53.594;9.938;2024-02-14T12:25:53;10.90;99.90
15452;DHT22;7827;53.594;9.938;2024-02-14T12:28:23;10.90;99.90
15452;DHT22;7827;53.594;9.938;2024-02-14T12:30:52;11.00;99.90
15452;DHT22;7827;53.594;9.938;2024-02-14T12:33:24;10.90;99.90
15452;DHT22;7827;53.594;9.938;2024-02-14T12:35:54;11.00;99.90
15452;DHT22;7827;53.594;9.938;2024-02-14T12:38:24;11.00;99.90
15452;DHT22;7827;53.594;9.938;2024-02-14T12:40:52;10.90;99.90
15452;DHT22;7827;53.594;9.938;2024-02-14T12:43:23;11.00;99.90
15452;DHT22;7827;53.594;9.938;2024-02-14T12:45:51;11.00;99.90
15452;DHT22;7827;53.594;9.938;2024-02-14T12:48:22;11.10;99.90
15452;DHT22;7827;53.594;9.938;2024-02-14T12:50:54;11.10;99.90
15452;DHT22;7827;53.594;9.938;2024-02-14T12:53:23;11.20;99.90
15452;DHT22;7827;53.594;9.938;2024-02-14T12:55:50;11.20;99.90
15452;DHT22;7827;53.594;9.938;2024-02-14T12:58:19;11.20;99.90
15452;DHT22;7827;53.594;9.938;2024-02-14T13:00:48;11.20;99.90
15452;DHT22;7827;53.594;9.938;2024-02-14T13:03:16;11.20;99.90
15452;DHT22;7827;53.594;9.938;2024-02-14T13:05:45;11.10;99.90
15452;DHT22;7827;53.594;9.938;2024-02-14T13:08:14;11.10;99.90
15452;DHT22;7827;53.594;9.938;2024-02-14T13:10:44;11.10;99.90
15452;DHT22;7827;53.594;9.938;2024-02-14T13:13:12;11.10;99.90
15452;DHT22;7827;53.594;9.938;2024-02-14T13:15:41;11.10;99.90
15452;DHT22;7827;53.594;9.938;2024-02-14T13:18:12;11.10;99.90
15452;DHT22;7827;53.594;9.938;2024-02-14T13:20:40;11.10;99.90
15452;DHT22;7827;53.594;9.938;2024-02-14T13:23:11;11.20;99.90
15452;DHT22;7827;53.594;9.938;2024-02-14T13:25:41;11.10;99.90
15452;DHT22;7827;53.594;9.938;2024-02-14T13:28:09;11.20;99.90
15452;DHT22;7827;53.594;9.938;2024-02-14T13:30:37;11.10;99.90
15452;DHT22;7827;53.594;9.938;2024-02-14T13:33:06;11.20;99.90
15452;DHT22;7827;53.594;9.938;2024-02-14T13:35:38;11.20;99.90
15452;DHT22;7827;53.594;9.938;2024-02-14T13:38:06;11.20;99.90
15452;DHT22;7827;53.594;9.938;2024-02-14T13:40:36;11.20;99.90
15452;DHT22;7827;53.594;9.938;2024-02-14T13:43:04;11.30;99.90
15452;DHT22;7827;53.594;9.938;2024-02-14T13:45:41;11.20;99.90
15452;DHT22;7827;53.594;9.938;2024-02-14T13:48:10;11.30;99.90
15452;DHT22;7827;53.594;9.938;2024-02-14T13:50:40;11.20;99.90
15452;DHT22;7827;53.594;9.938;2024-02-14T13:53:09;11.20;99.90
15452;DHT22;7827;53.594;9.938;2024-02-14T13:55:38;11.20;99.90
15452;DHT22;7827;53.594;9.938;2024-02-14T13:58:07;11.20;99.90
15452;DHT22;7827;53.594;9.938;2024-02-14T14:00:41;11.20;99.90
15452;DHT22;7827;53.594;9.938;2024-02-14T14:03:09;11.30;99.90
15452;DHT22;7827;53.594;9.938;2024-02-14T14:05:40;11.30;99.90
15452;DHT22;7827;53.594;9.938;2024-02-14T14:08:08;11.20;99.90
15452;DHT22;7827;53.594;9.938;2024-02-14T14:10:36;11.20;99.90
15452;DHT22;7827;53.594;9.938;2024-02-14T14:13:06;11.20;99.90
15452;DHT22;7827;53.594;9.938;2024-02-14T14:15:35;11.30;99.90
15452;DHT22;7827;53.594;9.938;2024-02-14T14:18:03;11.20;99.90
15452;DHT22;7827;53.594;9.938;2024-02-14T14:20:32;11.30;99.90
15452;DHT22;7827;53.594;9.938;2024-02-14T14:23:01;11.20;99.90
15452;DHT22;7827;53.594;9.938;2024-02-14T14:25:30;11.30;99.90
15452;DHT22;7827;53.594;9.938;2024-02-14T14:27:58;11.30;99.90
15452;DHT22;7827;53.594;9.938;2024-02-14T14:30:27;11.30;99.90
15452;DHT22;7827;53.594;9.938;2024-02-14T14:32:55;11.30;99.90
15452;DHT22;7827;53.594;9.938;2024-02-14T14:35:24;11.20;99.90
15452;DHT22;7827;53.594;9.938;2024-02-14T14:37:52;11.30;99.90
15452;DHT22;7827;53.594;9.938;2024-02-14T14:40:22;11.30;99.90
15452;DHT22;7827;53.594;9.938;2024-02-14T14:42:51;11.20;99.90
15452;DHT22;7827;53.594;9.938;2024-02-14T14:45:19;11.20;99.90
15452;DHT22;7827;53.594;9.938;2024-02-14T14:47:48;11.20;99.90
15452;DHT22;7827;53.594;9.938;2024-02-14T14:50:16;11.20;99.90
15452;DHT22;7827;53.594;9.938;2024-02-14T14:52:45;11.20;99.90
15452;DHT22;7827;53.594;9.938;2024-02-14T14:55:13;11.20;99.90
15452;DHT22;7827;53.594;9.938;2024-02-14T14:57:43;11.20;99.90
15452;DHT22;7827;53.594;9.938;2024-02-14T15:00:12;11.20;99.90
15452;DHT22;7827;53.594;9.938;2024-02-14T15:02:41;11.30;99.90
15452;DHT22;7827;53.594;9.938;2024-02-14T15:05:10;11.20;99.90
15452;DHT22;7827;53.594;9.938;2024-02-14T15:07:38;11.30;99.90
15452;DHT22;7827;53.594;9.938;2024-02-14T15:10:07;11.20;99.90
15452;DHT22;7827;53.594;9.938;2024-02-14T15:12:36;11.20;99.90
15452;DHT22;7827;53.594;9.938;2024-02-14T15:15:07;11.20;99.90
15452;DHT22;7827;53.594;9.938;2024-02-14T15:17:37;11.10;99.90
15452;DHT22;7827;53.594;9.938;2024-02-14T15:20:08;11.20;99.90
15452;DHT22;7827;53.594;9.938;2024-02-14T15:22:36;11.10;99.90
15452;DHT22;7827;53.594;9.938;2024-02-14T15:25:05;11.10;99.90
15452;DHT22;7827;53.594;9.938;2024-02-14T15:27:33;11.10;99.90
15452;DHT22;7827;53.594;9.938;2024-02-14T15:30:09;11.10;99.90
15452;DHT22;7827;53.594;9.938;2024-02-14T15:32:55;11.10;99.90
15452;DHT22;7827;53.594;9.938;2024-02-14T15:35:42;11.10;99.90
15452;DHT22;7827;53.594;9.938;2024-02-14T15:38:10;11.10;99.90
15452;DHT22;7827;53.594;9.938;2024-02-14T15:40:38;11.00;99.90
15452;DHT22;7827;53.594;9.938;2024-02-14T15:43:07;11.00;99.90
15452;DHT22;7827;53.594;9.938;2024-02-14T15:45:38;11.00;99.90
15452;DHT22;7827;53.594;9.938;2024-02-14T15:48:06;11.10;99.90
15452;DHT22;7827;53.594;9.938;2024-02-14T15:50:35;11.00;99.90
15452;DHT22;7827;53.594;9.938;2024-02-14T15:53:04;11.00;99.90
15452;DHT22;7827;53.594;9.938;2024-02-14T15:55:32;11.00;99.90
15452;DHT22;7827;53.594;9.938;2024-02-14T15:58:01;11.00;99.90
15452;DHT22;7827;53.594;9.938;2024-02-14T16:00:30;11.00;99.90
15452;DHT22;7827;53.594;9.938;2024-02-14T16:03:00;11.00;99.90
15452;DHT22;7827;53.594;9.938;2024-02-14T16:05:28;11.10;99.90
15452;DHT22;7827;53.594;9.938;2024-02-14T16:07:57;11.10;99.90
15452;DHT22;7827;53.594;9.938;2024-02-14T16:10:26;11.10;99.90
15452;DHT22;7827;53.594;9.938;2024-02-14T16:12:54;11.10;99.90
15452;DHT22;7827;53.594;9.938;2024-02-14T16:15:22;11.10;99.90
15452;DHT22;7827;53.594;9.938;2024-02-14T16:17:50;11.10;99.90
15452;DHT22;7827;53.594;9.938;2024-02-14T16:20:20;11.10;99.90
15452;DHT22;7827;53.594;9.938;2024-02-14T16:22:49;11.10;99.90
15452;DHT22;7827;53.594;9.938;2024-02-14T16:25:18;11.10;99.90